createdAt,value
2018-03-11T00:02:24.550Z,11.10
2018-03-11T00:04:58.354Z,11.10
2018-03-11T00:07:32.136Z,11.10
2018-03-11T00:10:05.870Z,11.10
2018-03-11T00:12:39.541Z,11.10
2018-03-11T00:15:14.122Z,11.10
2018-03-11T00:17:47.766Z,11.20
2018-03-11T00:20:21.357Z,11.20
2018-03-11T00:22:55.099Z,11.20
2018-03-11T00:25:28.736Z,11.20
2018-03-11T00:28:02.478Z,11.20
2018-03-11T00:30:37.102Z,11.20
2018-03-11T00:33:10.706Z,11.20
2018-03-11T00:35:44.441Z,11.20
2018-03-11T00:38:19.825Z,11.30
2018-03-11T00:40:53.546Z,11.30
2018-03-11T00:43:27.285Z,11.30
2018-03-11T00:46:01.073Z,11.30
2018-03-11T00:48:35.735Z,11.30
2018-03-11T00:51:09.606Z,11.20
2018-03-11T00:53:43.346Z,11.20
2018-03-11T00:56:17.868Z,11.20
2018-03-11T00:58:53.108Z,11.20
2018-03-11T01:01:27.196Z,11.20
2018-03-11T01:04:00.796Z,11.20
2018-03-11T01:06:34.622Z,11.20
2018-03-11T01:09:09.014Z,11.20
2018-03-11T01:11:43.156Z,11.20
2018-03-11T01:14:17.013Z,11.30
2018-03-11T01:16:50.866Z,11.30
2018-03-11T01:19:25.369Z,11.30
2018-03-11T01:22:00.028Z,11.30
2018-03-11T01:24:33.936Z,11.30
2018-03-11T01:27:07.629Z,11.30
2018-03-11T01:29:41.526Z,11.30
2018-03-11T01:32:15.317Z,11.30
2018-03-11T01:34:49.752Z,11.20
2018-03-11T01:37:24.245Z,11.20
2018-03-11T01:39:58.463Z,11.20
2018-03-11T01:42:32.952Z,11.20
2018-03-11T01:45:08.322Z,11.10
2018-03-11T01:47:42.164Z,11.10
2018-03-11T01:50:15.996Z,11.10
2018-03-11T01:53:01.618Z,11.10
2018-03-11T01:55:35.435Z,11.10
2018-03-11T01:58:09.505Z,11.10
2018-03-11T02:00:43.470Z,11.10
2018-03-11T02:03:17.312Z,11.10
2018-03-11T02:05:51.054Z,11.10
2018-03-11T02:08:24.798Z,11.00
2018-03-11T02:10:58.592Z,11.00
2018-03-11T02:13:32.406Z,10.90
2018-03-11T02:16:06.805Z,10.90
2018-03-11T02:18:40.632Z,10.90
2018-03-11T02:21:14.469Z,10.80
2018-03-11T02:23:48.179Z,10.80
2018-03-11T02:26:21.918Z,10.70
2018-03-11T02:28:56.402Z,10.70
2018-03-11T02:31:30.965Z,10.50
2018-03-11T02:34:05.919Z,10.40
2018-03-11T02:36:39.796Z,10.40
2018-03-11T02:39:14.464Z,10.40
2018-03-11T02:41:48.789Z,10.30
2018-03-11T02:44:22.572Z,10.20
2018-03-11T02:46:57.332Z,10.30
2018-03-11T02:49:31.918Z,10.30
2018-03-11T02:52:05.801Z,10.30
2018-03-11T02:54:39.462Z,10.40
2018-03-11T02:57:13.266Z,10.40
2018-03-11T02:59:47.828Z,10.50
2018-03-11T03:02:21.539Z,10.50
2018-03-11T03:04:56.116Z,10.50
2018-03-11T03:07:29.935Z,10.50
2018-03-11T03:10:03.706Z,10.50
2018-03-11T03:12:37.517Z,10.40
2018-03-11T03:15:11.184Z,10.40
2018-03-11T03:17:45.766Z,10.20
2018-03-11T03:20:20.374Z,10.20
2018-03-11T03:22:54.247Z,10.10
2018-03-11T03:25:27.888Z,10.10
2018-03-11T03:28:02.303Z,10.10
2018-03-11T03:30:36.110Z,10.00
2018-03-11T03:33:09.981Z,10.00
2018-03-11T03:35:43.850Z,10.00
2018-03-11T03:38:17.656Z,10.00
2018-03-11T03:40:51.406Z,10.00
2018-03-11T03:43:25.227Z,9.90
2018-03-11T03:45:58.945Z,9.90
2018-03-11T03:48:32.753Z,9.90
2018-03-11T03:51:06.560Z,9.90
2018-03-11T03:53:40.320Z,9.90
2018-03-11T03:56:14.037Z,10.00
2018-03-11T03:58:48.581Z,10.10
2018-03-11T04:01:22.463Z,10.00
2018-03-11T04:03:56.270Z,10.10
2018-03-11T04:06:30.120Z,10.20
2018-03-11T04:09:03.924Z,10.20
2018-03-11T04:11:37.647Z,10.30
2018-03-11T04:14:11.350Z,10.30
2018-03-11T04:16:45.089Z,10.30
2018-03-11T04:19:19.529Z,10.40
2018-03-11T04:21:53.336Z,10.30
2018-03-11T04:24:27.911Z,10.20
2018-03-11T04:27:01.668Z,10.20
2018-03-11T04:29:36.432Z,10.10
2018-03-11T04:32:10.304Z,10.00
2018-03-11T04:34:45.589Z,9.70
2018-03-11T04:37:19.860Z,9.70
2018-03-11T04:39:54.550Z,9.50
2018-03-11T04:42:28.356Z,9.50
2018-03-11T04:45:02.134Z,9.40
2018-03-11T04:47:35.873Z,9.30
2018-03-11T04:50:10.325Z,9.10
2018-03-11T04:52:45.009Z,9.00
2018-03-11T04:55:18.798Z,9.00
2018-03-11T04:57:52.550Z,9.00
2018-03-11T05:00:26.307Z,9.00
2018-03-11T05:03:00.819Z,8.80
2018-03-11T05:05:35.317Z,8.80
2018-03-11T05:08:09.231Z,8.70
2018-03-11T05:10:43.659Z,8.60
2018-03-11T05:13:17.410Z,8.60
2018-03-11T05:15:52.080Z,8.50
2018-03-11T05:18:25.807Z,8.40
2018-03-11T05:20:59.483Z,8.40
2018-03-11T05:23:33.248Z,8.40
2018-03-11T05:26:06.914Z,8.40
2018-03-11T05:28:40.720Z,8.40
2018-03-11T05:31:14.455Z,8.40
2018-03-11T05:33:48.056Z,8.20
2018-03-11T05:36:22.489Z,8.20
2018-03-11T05:38:57.217Z,8.20
2018-03-11T05:41:30.914Z,8.20
2018-03-11T05:44:04.776Z,8.20
2018-03-11T05:46:38.586Z,8.20
2018-03-11T05:49:14.091Z,8.20
2018-03-11T05:51:47.775Z,8.20
2018-03-11T05:54:21.547Z,8.10
2018-03-11T05:56:56.035Z,8.10
2018-03-11T05:59:29.720Z,8.10
2018-03-11T06:02:03.580Z,8.10
2018-03-11T06:04:37.990Z,8.10
2018-03-11T06:07:11.725Z,8.10
2018-03-11T06:09:45.533Z,8.10
2018-03-11T06:12:19.235Z,8.20
2018-03-11T06:14:52.958Z,8.30
2018-03-11T06:17:27.483Z,8.40
2018-03-11T06:20:02.025Z,8.40
2018-03-11T06:22:35.772Z,8.40
2018-03-11T06:25:09.508Z,8.50
2018-03-11T06:27:43.345Z,8.50
2018-03-11T06:30:16.994Z,8.60
2018-03-11T06:32:50.676Z,8.70
2018-03-11T06:35:25.080Z,8.80
2018-03-11T06:37:58.838Z,8.80
2018-03-11T06:40:33.372Z,8.90
2018-03-11T06:43:07.137Z,8.90
2018-03-11T06:45:41.553Z,9.00
2018-03-11T06:48:15.625Z,9.00
2018-03-11T06:50:49.476Z,9.10
2018-03-11T06:53:23.225Z,9.20
2018-03-11T06:55:58.081Z,9.30
2018-03-11T06:58:32.768Z,9.30
2018-03-11T07:01:06.565Z,9.40
2018-03-11T07:03:41.288Z,9.50
2018-03-11T07:06:15.902Z,9.60
2018-03-11T07:08:49.695Z,9.60
2018-03-11T07:11:24.488Z,9.80
2018-03-11T07:13:58.188Z,9.80
2018-03-11T07:16:32.077Z,9.90
2018-03-11T07:19:05.969Z,10.00
2018-03-11T07:21:39.748Z,10.10
2018-03-11T07:24:14.297Z,10.30
2018-03-11T07:26:48.268Z,10.30
2018-03-11T07:29:22.110Z,10.40
2018-03-11T07:31:55.882Z,10.50
2018-03-11T07:34:29.517Z,10.60
2018-03-11T07:37:03.266Z,10.70
2018-03-11T07:39:37.897Z,10.80
2018-03-11T07:42:11.520Z,10.90
2018-03-11T07:44:45.531Z,11.00
2018-03-11T07:47:19.254Z,11.10
2018-03-11T07:49:52.908Z,11.10
2018-03-11T07:52:26.736Z,11.20
2018-03-11T07:55:00.461Z,11.30
2018-03-11T07:57:34.187Z,11.40
2018-03-11T08:00:08.035Z,11.40
2018-03-11T08:02:43.150Z,11.60
2018-03-11T08:05:17.865Z,11.70
2018-03-11T08:07:53.898Z,11.80
2018-03-11T08:10:27.685Z,12.00
2018-03-11T08:13:02.843Z,12.10
2018-03-11T08:15:37.490Z,12.20
2018-03-11T08:18:11.117Z,12.30
2018-03-11T08:20:46.335Z,12.50
2018-03-11T08:23:21.364Z,12.60
2018-03-11T08:25:56.517Z,12.80
2018-03-11T08:28:30.660Z,13.00
2018-03-11T08:31:05.434Z,13.10
2018-03-11T08:33:39.479Z,13.30
2018-03-11T08:36:13.917Z,13.40
2018-03-11T08:38:47.813Z,13.40
2018-03-11T08:41:21.895Z,13.50
2018-03-11T08:43:55.767Z,13.50
2018-03-11T08:46:30.973Z,13.50
2018-03-11T08:49:05.383Z,13.60
2018-03-11T08:51:43.567Z,13.60
2018-03-11T08:54:17.654Z,13.70
2018-03-11T08:56:52.106Z,13.70
2018-03-11T08:59:25.935Z,13.80
2018-03-11T09:02:00.409Z,13.90
2018-03-11T09:04:34.224Z,14.00
2018-03-11T09:07:08.005Z,14.10
2018-03-11T09:09:41.754Z,14.10
2018-03-11T09:12:16.514Z,14.20
2018-03-11T09:14:50.250Z,14.30
2018-03-11T09:17:24.001Z,14.30
2018-03-11T09:19:57.872Z,14.40
2018-03-11T09:22:31.556Z,14.50
2018-03-11T09:25:05.170Z,14.60
2018-03-11T09:27:39.056Z,14.70
2018-03-11T09:30:12.866Z,14.70
2018-03-11T09:32:46.542Z,14.70
2018-03-11T09:35:20.673Z,14.80
2018-03-11T09:37:54.253Z,14.90
2018-03-11T09:40:27.986Z,15.10
2018-03-11T09:43:01.876Z,15.10
2018-03-11T09:45:35.761Z,15.20
2018-03-11T09:48:09.554Z,15.30
2018-03-11T09:50:44.036Z,15.50
2018-03-11T09:53:17.734Z,15.40
2018-03-11T09:55:52.634Z,15.40
2018-03-11T09:58:26.452Z,15.50
2018-03-11T10:01:00.214Z,15.60
2018-03-11T10:03:34.015Z,15.70
2018-03-11T10:06:07.684Z,15.80
2018-03-11T10:08:41.541Z,15.80
2018-03-11T10:11:16.164Z,15.80
2018-03-11T10:13:49.986Z,15.80
2018-03-11T10:16:23.666Z,16.00
2018-03-11T10:18:57.432Z,16.10
2018-03-11T10:21:31.187Z,16.10
2018-03-11T10:24:04.986Z,16.00
2018-03-11T10:26:39.520Z,15.90
2018-03-11T10:29:13.936Z,15.70
2018-03-11T10:31:48.584Z,15.70
2018-03-11T10:34:23.129Z,15.50
2018-03-11T10:36:56.921Z,15.50
2018-03-11T10:39:30.914Z,15.30
2018-03-11T10:42:04.622Z,15.10
2018-03-11T10:44:39.151Z,15.00
2018-03-11T10:47:13.727Z,14.90
2018-03-11T10:49:47.618Z,14.90
2018-03-11T10:52:21.345Z,14.90
2018-03-11T10:54:55.761Z,14.80
2018-03-11T10:57:29.434Z,14.90
2018-03-11T11:00:03.164Z,15.00
2018-03-11T11:02:37.660Z,15.00
2018-03-11T11:05:11.324Z,15.00
2018-03-11T11:07:44.994Z,15.10
2018-03-11T11:10:18.805Z,15.40
2018-03-11T11:12:53.674Z,15.70
2018-03-11T11:15:27.252Z,16.00
2018-03-11T11:18:01.076Z,16.20
2018-03-11T11:20:34.674Z,16.10
2018-03-11T11:23:08.655Z,16.20
2018-03-11T11:25:44.291Z,16.10
2018-03-11T11:28:18.034Z,16.20
2018-03-11T11:30:51.761Z,16.20
2018-03-11T11:33:25.732Z,16.20
2018-03-11T11:35:59.747Z,16.20
2018-03-11T11:38:33.527Z,16.30
2018-03-11T11:41:07.336Z,16.10
2018-03-11T11:43:41.764Z,15.80
2018-03-11T11:46:16.243Z,15.80
2018-03-11T11:48:50.021Z,15.80
2018-03-11T11:51:23.758Z,15.70
2018-03-11T11:53:58.361Z,15.50
2018-03-11T11:56:32.053Z,15.50
2018-03-11T11:59:06.649Z,15.40
2018-03-11T12:01:41.933Z,15.40
2018-03-11T12:04:15.787Z,15.30
2018-03-11T12:06:49.531Z,15.30
2018-03-11T12:09:23.289Z,15.30
2018-03-11T12:11:58.420Z,15.40
2018-03-11T12:14:32.253Z,15.40
2018-03-11T12:17:06.089Z,15.40
2018-03-11T12:19:39.832Z,15.40
2018-03-11T12:22:14.532Z,15.50
2018-03-11T12:24:48.938Z,15.50
2018-03-11T12:27:22.685Z,15.60
2018-03-11T12:29:56.372Z,15.60
2018-03-11T12:32:30.194Z,15.70
2018-03-11T12:35:04.042Z,15.70
2018-03-11T12:37:38.652Z,15.80
2018-03-11T12:40:12.400Z,15.80
2018-03-11T12:42:47.083Z,15.90
2018-03-11T12:45:20.953Z,15.90
2018-03-11T12:47:54.751Z,15.90
2018-03-11T12:50:28.580Z,15.80
2018-03-11T12:53:03.226Z,15.90
2018-03-11T12:55:36.935Z,16.00
2018-03-11T12:58:10.626Z,15.90
2018-03-11T13:00:44.626Z,15.90
2018-03-11T13:03:18.420Z,15.80
2018-03-11T13:05:52.176Z,15.80
2018-03-11T13:08:26.057Z,15.70
2018-03-11T13:11:00.609Z,15.70
2018-03-11T13:13:34.386Z,15.60
2018-03-11T13:16:08.243Z,15.70
2018-03-11T13:18:42.017Z,15.60
2018-03-11T13:21:17.443Z,15.50
2018-03-11T13:23:51.213Z,15.50
2018-03-11T13:26:25.046Z,15.40
2018-03-11T13:28:58.861Z,15.40
2018-03-11T13:31:33.595Z,15.40
2018-03-11T13:34:19.088Z,15.50
2018-03-11T13:36:52.901Z,15.60
2018-03-11T13:39:38.546Z,15.70
2018-03-11T13:42:12.421Z,15.80
2018-03-11T13:44:46.197Z,16.00
2018-03-11T13:47:19.903Z,16.00
2018-03-11T13:49:53.628Z,16.00
2018-03-11T13:52:39.256Z,16.00
2018-03-11T13:55:13.318Z,15.90
2018-03-11T13:58:09.171Z,15.80
2018-03-11T14:00:43.086Z,15.80
2018-03-11T14:03:16.893Z,15.90
2018-03-11T14:05:50.584Z,16.00
2018-03-11T14:08:24.351Z,16.00
2018-03-11T14:10:58.299Z,16.00
2018-03-11T14:13:32.054Z,16.00
2018-03-11T14:16:05.825Z,16.00
2018-03-11T14:18:39.632Z,16.00
2018-03-11T14:21:14.397Z,16.30
2018-03-11T14:23:48.196Z,16.20
2018-03-11T14:26:21.956Z,16.40
2018-03-11T14:28:55.707Z,16.40
2018-03-11T14:31:29.822Z,16.50
2018-03-11T14:34:03.633Z,16.50
2018-03-11T14:36:38.298Z,16.40
2018-03-11T14:39:12.062Z,16.40
2018-03-11T14:41:45.870Z,16.30
2018-03-11T14:44:19.885Z,16.10
2018-03-11T14:46:55.555Z,15.90
2018-03-11T14:49:29.303Z,15.80
2018-03-11T14:52:03.186Z,15.70
2018-03-11T14:54:37.733Z,15.70
2018-03-11T14:57:11.615Z,15.70
2018-03-11T14:59:45.382Z,15.70
2018-03-11T15:02:19.145Z,15.60
2018-03-11T15:04:53.783Z,15.40
2018-03-11T15:07:27.642Z,15.40
2018-03-11T15:10:01.399Z,15.40
2018-03-11T15:12:35.882Z,15.50
2018-03-11T15:15:09.687Z,15.50
2018-03-11T15:17:43.537Z,15.60
2018-03-11T15:20:17.366Z,15.70
2018-03-11T15:22:51.182Z,15.80
2018-03-11T15:25:25.024Z,15.90
2018-03-11T15:27:58.733Z,15.90
2018-03-11T15:30:32.623Z,15.80
2018-03-11T15:33:06.409Z,15.90
2018-03-11T15:35:40.140Z,15.90
2018-03-11T15:38:13.915Z,15.80
2018-03-11T15:40:47.969Z,15.80
2018-03-11T15:43:21.725Z,15.80
2018-03-11T15:45:56.611Z,15.70
2018-03-11T15:48:30.374Z,15.70
2018-03-11T15:51:04.006Z,15.70
2018-03-11T15:53:37.883Z,15.60
2018-03-11T15:56:12.399Z,15.50
2018-03-11T15:58:49.191Z,15.50
2018-03-11T16:01:26.512Z,15.30
2018-03-11T16:04:00.967Z,15.30
2018-03-11T16:06:36.957Z,15.70
2018-03-11T16:09:11.574Z,15.70
2018-03-11T16:11:46.002Z,16.30
2018-03-11T16:14:20.437Z,16.40
2018-03-11T16:17:03.570Z,16.40
2018-03-11T16:19:41.372Z,16.30
2018-03-11T16:22:15.221Z,16.10
2018-03-11T16:24:54.390Z,15.90
2018-03-11T16:27:29.187Z,15.80
2018-03-11T16:30:02.998Z,15.50
2018-03-11T16:32:39.096Z,15.40
2018-03-11T16:35:14.637Z,15.30
2018-03-11T16:37:49.453Z,15.20
2018-03-11T16:40:23.462Z,15.10
2018-03-11T16:45:58.478Z,14.90
2018-03-11T16:48:33.639Z,14.80
2018-03-11T16:51:07.415Z,14.70
2018-03-11T16:53:43.110Z,14.70
2018-03-11T16:56:16.861Z,14.50
2018-03-11T16:58:52.573Z,14.50
2018-03-11T17:01:27.429Z,14.40
2018-03-11T17:04:03.678Z,14.30
2018-03-11T17:06:37.237Z,14.30
2018-03-11T17:09:14.900Z,14.20
2018-03-11T17:14:36.485Z,14.00
2018-03-11T17:17:10.728Z,13.90
2018-03-11T17:19:45.181Z,13.90
2018-03-11T17:22:19.813Z,13.80
2018-03-11T17:24:53.588Z,13.80
2018-03-11T17:27:27.361Z,13.80
2018-03-11T17:30:01.225Z,13.70
2018-03-11T17:32:35.085Z,13.70
2018-03-11T17:35:08.780Z,13.70
2018-03-11T17:37:42.440Z,13.60
2018-03-11T17:40:17.012Z,13.40
2018-03-11T17:42:51.486Z,13.40
2018-03-11T17:45:25.112Z,13.30
2018-03-11T17:47:59.643Z,13.20
2018-03-11T17:50:33.396Z,13.20
2018-03-11T17:53:07.224Z,13.10
2018-03-11T17:55:41.014Z,13.10
2018-03-11T17:58:15.710Z,13.00
2018-03-11T18:00:49.500Z,13.00
2018-03-11T18:03:23.301Z,13.00
2018-03-11T18:05:57.551Z,13.00
2018-03-11T18:08:31.236Z,13.10
2018-03-11T18:11:05.030Z,13.10
2018-03-11T18:13:38.886Z,13.20
2018-03-11T18:16:12.696Z,13.20
2018-03-11T18:18:46.425Z,13.30
2018-03-11T18:21:20.219Z,13.30
2018-03-11T18:23:53.971Z,13.30
2018-03-11T18:26:27.756Z,13.40
2018-03-11T18:29:01.478Z,13.50
2018-03-11T18:31:35.304Z,13.50
2018-03-11T18:34:11.420Z,13.50
2018-03-11T18:36:45.297Z,13.50
2018-03-11T18:39:18.997Z,13.40
2018-03-11T18:41:52.857Z,13.40
2018-03-11T18:44:26.804Z,13.30
2018-03-11T18:47:00.702Z,13.30
2018-03-11T18:49:35.443Z,13.30
2018-03-11T18:52:09.318Z,13.20
2018-03-11T18:54:43.641Z,13.20
2018-03-11T18:57:17.361Z,13.20
2018-03-11T18:59:53.849Z,13.20
2018-03-11T19:02:27.669Z,13.20
2018-03-11T19:05:01.570Z,13.20
2018-03-11T19:07:36.330Z,13.20
2018-03-11T19:10:11.454Z,13.20
2018-03-11T19:12:45.138Z,13.20
2018-03-11T19:15:18.962Z,13.30
2018-03-11T19:17:52.718Z,13.30
2018-03-11T19:20:26.497Z,13.40
2018-03-11T19:23:01.564Z,13.40
2018-03-11T19:25:35.459Z,13.40
2018-03-11T19:28:10.052Z,13.40
2018-03-11T19:30:43.836Z,13.30
2018-03-11T19:33:17.676Z,13.30
2018-03-11T19:35:51.421Z,13.40
2018-03-11T19:38:25.291Z,13.40
2018-03-11T19:40:59.109Z,13.40
2018-03-11T19:43:33.804Z,13.40
2018-03-11T19:46:07.982Z,13.40
2018-03-11T19:48:41.813Z,13.40
2018-03-11T19:51:15.547Z,13.40
2018-03-11T19:53:49.393Z,13.40
2018-03-11T19:56:23.360Z,13.40
2018-03-11T19:58:57.209Z,13.40
2018-03-11T20:01:30.962Z,13.50
2018-03-11T20:04:04.761Z,13.50
2018-03-11T20:06:38.461Z,13.40
2018-03-11T20:09:12.337Z,13.40
2018-03-11T20:11:46.146Z,13.40
2018-03-11T20:14:20.122Z,13.40
2018-03-11T20:16:55.690Z,13.30
2018-03-11T20:19:29.755Z,13.30
2018-03-11T20:22:04.510Z,13.30
2018-03-11T20:24:38.761Z,13.30
2018-03-11T20:27:14.802Z,13.30
2018-03-11T20:29:48.569Z,13.30
2018-03-11T20:32:22.229Z,13.30
2018-03-11T20:34:57.669Z,13.30
2018-03-11T20:37:31.312Z,13.20
2018-03-11T20:40:05.004Z,13.20
2018-03-11T20:42:38.797Z,13.10
2018-03-11T20:45:12.541Z,13.20
2018-03-11T20:47:46.141Z,13.10
2018-03-11T20:50:20.807Z,13.10
2018-03-11T20:52:54.544Z,13.10
2018-03-11T20:55:28.155Z,13.10
2018-03-11T20:58:01.850Z,13.00
2018-03-11T21:00:35.590Z,13.00
2018-03-11T21:03:10.062Z,13.00
2018-03-11T21:05:43.624Z,13.00
2018-03-11T21:08:17.817Z,13.00
2018-03-11T21:10:51.673Z,13.00
2018-03-11T21:13:25.516Z,12.90
2018-03-11T21:15:59.947Z,12.80
2018-03-11T21:18:33.780Z,12.80
2018-03-11T21:21:07.649Z,12.80
2018-03-11T21:23:41.524Z,12.70
2018-03-11T21:26:15.308Z,12.60
2018-03-11T21:28:49.184Z,12.60
2018-03-11T21:31:22.997Z,12.60
2018-03-11T21:33:56.782Z,12.60
2018-03-11T21:36:30.796Z,12.50
2018-03-11T21:39:06.443Z,12.60
2018-03-11T21:41:40.203Z,12.50
2018-03-11T21:44:14.806Z,12.50
2018-03-11T21:46:48.674Z,12.50
2018-03-11T21:49:26.028Z,12.50
2018-03-11T21:52:00.022Z,12.50
2018-03-11T21:54:33.751Z,12.40
2018-03-11T21:57:07.659Z,12.40
2018-03-11T21:59:41.438Z,12.40
2018-03-11T22:02:19.507Z,12.40
2018-03-11T22:04:54.054Z,12.20
2018-03-11T22:07:28.547Z,12.20
2018-03-11T22:10:02.340Z,12.20
2018-03-11T22:12:36.897Z,12.10
2018-03-11T22:15:11.566Z,12.10
2018-03-11T22:17:45.431Z,12.00
2018-03-11T22:20:20.207Z,11.90
2018-03-11T22:22:53.908Z,11.90
2018-03-11T22:25:28.513Z,11.60
2018-03-11T22:28:03.777Z,11.50
2018-03-11T22:30:38.402Z,11.50
2018-03-11T22:33:12.756Z,11.40
2018-03-11T22:35:46.503Z,11.30
2018-03-11T22:38:20.400Z,11.20
2018-03-11T22:40:54.065Z,11.10
2018-03-11T22:43:27.973Z,11.00
2018-03-11T22:46:01.765Z,11.00
2018-03-11T22:48:35.651Z,10.90
2018-03-11T22:51:11.190Z,10.80
2018-03-11T22:53:44.989Z,10.80
2018-03-11T22:56:18.842Z,10.70
2018-03-11T22:58:52.545Z,10.70
2018-03-11T23:01:27.256Z,10.70
2018-03-11T23:04:01.254Z,10.70
2018-03-11T23:06:36.499Z,10.60
2018-03-11T23:09:10.701Z,10.60
2018-03-11T23:11:44.751Z,10.60
2018-03-11T23:14:18.522Z,10.60
2018-03-11T23:16:53.235Z,10.70
2018-03-11T23:19:27.770Z,10.70
2018-03-11T23:22:01.426Z,10.70
2018-03-11T23:24:36.039Z,10.60
2018-03-11T23:27:11.274Z,10.60
2018-03-11T23:29:45.070Z,10.60
2018-03-11T23:32:18.793Z,10.50
2018-03-11T23:34:52.982Z,10.50
2018-03-11T23:37:26.574Z,10.40
2018-03-11T23:40:00.274Z,10.40
2018-03-11T23:42:34.124Z,10.40
2018-03-11T23:45:08.054Z,10.40
2018-03-11T23:47:41.789Z,10.30
2018-03-11T23:50:15.635Z,10.40
2018-03-11T23:52:50.442Z,10.40
2018-03-11T23:55:24.170Z,10.40
2018-03-11T23:57:58.294Z,10.50
